createdAt,value
2023-07-18T00:00:04.163Z,2.20
2023-07-18T00:02:27.328Z,2.17
2023-07-18T00:04:49.970Z,2.10
2023-07-18T00:07:12.199Z,2.23
2023-07-18T00:09:34.745Z,1.90
2023-07-18T00:11:57.441Z,1.87
2023-07-18T00:14:19.718Z,2.07
2023-07-18T00:16:42.729Z,2.07
2023-07-18T00:19:05.153Z,2.00
2023-07-18T00:21:28.413Z,1.73
2023-07-18T00:23:51.331Z,2.10
2023-07-18T00:26:14.235Z,1.80
2023-07-18T00:28:40.601Z,1.93
2023-07-18T00:31:04.743Z,2.10
2023-07-18T00:33:27.460Z,2.00
2023-07-18T00:35:49.704Z,1.67
2023-07-18T00:38:12.938Z,1.70
2023-07-18T00:40:37.616Z,2.10
2023-07-18T00:42:59.912Z,2.13
2023-07-18T00:45:22.197Z,1.97
2023-07-18T00:47:45.463Z,2.03
2023-07-18T00:50:12.300Z,2.40
2023-07-18T00:52:37.514Z,2.10
2023-07-18T00:55:00.104Z,1.73
2023-07-18T00:57:22.406Z,2.10
2023-07-18T00:59:45.215Z,2.10
2023-07-18T01:02:08.190Z,2.27
2023-07-18T01:04:30.686Z,1.83
2023-07-18T01:07:22.422Z,2.40
2023-07-18T01:09:44.794Z,2.00
2023-07-18T01:12:07.327Z,2.40
2023-07-18T01:14:29.609Z,1.77
2023-07-18T01:16:52.623Z,2.20
2023-07-18T01:19:15.055Z,2.30
2023-07-18T01:21:37.361Z,2.37
2023-07-18T01:23:59.591Z,2.13
2023-07-18T01:26:22.775Z,2.00
2023-07-18T01:28:45.070Z,1.70
2023-07-18T01:31:07.641Z,2.37
2023-07-18T01:33:30.726Z,2.33
2023-07-18T01:35:53.046Z,2.27
2023-07-18T01:38:15.373Z,2.20
2023-07-18T01:40:37.904Z,2.07
2023-07-18T01:43:00.198Z,2.13
2023-07-18T01:45:23.295Z,2.10
2023-07-18T01:47:45.566Z,2.70
2023-07-18T01:50:08.597Z,2.90
2023-07-18T01:52:30.928Z,2.57
2023-07-18T01:54:54.130Z,2.40
2023-07-18T01:57:16.409Z,2.53
2023-07-18T01:59:38.640Z,2.40
2023-07-18T02:02:03.920Z,2.33
2023-07-18T02:04:26.174Z,2.60
2023-07-18T02:06:48.391Z,2.50
2023-07-18T02:09:11.194Z,2.50
2023-07-18T02:11:33.440Z,2.40
2023-07-18T02:13:55.689Z,2.90
2023-07-18T02:16:18.168Z,2.33
2023-07-18T02:18:40.746Z,2.43
2023-07-18T02:21:03.108Z,2.50
2023-07-18T02:23:25.350Z,2.70
2023-07-18T02:25:47.936Z,3.00
2023-07-18T02:28:11.287Z,2.97
2023-07-18T02:30:34.328Z,2.73
2023-07-18T02:32:56.863Z,3.20
2023-07-18T02:35:20.504Z,2.87
2023-07-18T02:37:42.735Z,2.60
2023-07-18T02:40:12.466Z,2.50
2023-07-18T02:42:34.994Z,2.53
2023-07-18T02:44:57.705Z,3.00
2023-07-18T02:47:19.981Z,2.57
2023-07-18T02:49:43.195Z,2.47
2023-07-18T02:52:05.632Z,2.60
2023-07-18T02:54:27.982Z,2.43
2023-07-18T02:56:50.412Z,2.60
2023-07-18T02:59:12.756Z,3.00
2023-07-18T03:01:35.353Z,3.00
2023-07-18T03:03:57.882Z,2.63
2023-07-18T03:06:20.242Z,2.80
2023-07-18T03:08:42.901Z,2.80
2023-07-18T03:11:05.709Z,3.00
2023-07-18T03:13:28.833Z,2.83
2023-07-18T03:15:51.193Z,2.97
2023-07-18T03:18:13.792Z,2.50
2023-07-18T03:20:36.105Z,2.87
2023-07-18T03:22:58.395Z,2.90
2023-07-18T03:25:23.575Z,2.70
2023-07-18T03:27:46.178Z,2.97
2023-07-18T03:30:11.657Z,2.87
2023-07-18T03:32:33.985Z,3.33
2023-07-18T03:34:56.245Z,3.63
2023-07-18T03:37:20.900Z,3.30
2023-07-18T03:39:43.153Z,3.30
2023-07-18T03:42:05.538Z,2.83
2023-07-18T03:44:27.859Z,3.37
2023-07-18T03:46:50.831Z,3.47
2023-07-18T03:49:15.405Z,3.17
2023-07-18T03:51:38.098Z,3.07
2023-07-18T03:54:00.515Z,2.90
2023-07-18T03:56:23.260Z,2.80
2023-07-18T03:58:45.539Z,4.00
2023-07-18T04:01:09.181Z,3.13
2023-07-18T04:03:31.481Z,3.10
2023-07-18T04:05:53.767Z,3.43
2023-07-18T04:08:16.748Z,2.73
2023-07-18T04:10:39.165Z,2.73
2023-07-18T04:13:01.494Z,2.90
2023-07-18T04:15:23.818Z,3.47
2023-07-18T04:17:46.172Z,2.93
2023-07-18T04:20:08.731Z,2.70
2023-07-18T04:22:31.100Z,2.70
2023-07-18T04:24:56.326Z,3.17
2023-07-18T04:27:18.595Z,3.10
2023-07-18T04:29:40.839Z,3.10
2023-07-18T04:32:03.150Z,2.47
2023-07-18T04:34:25.454Z,2.57
2023-07-18T04:36:47.691Z,2.10
2023-07-18T04:39:10.506Z,1.90
2023-07-18T04:41:45.117Z,2.13
2023-07-18T04:44:12.412Z,1.70
2023-07-18T04:46:34.901Z,1.50
2023-07-18T04:48:57.330Z,1.98
2023-07-18T04:51:19.808Z,1.40
2023-07-18T04:53:42.196Z,2.30
2023-07-18T04:56:06.667Z,1.80
2023-07-18T04:58:29.798Z,1.90
2023-07-18T05:00:52.756Z,1.77
2023-07-18T05:03:15.282Z,1.70
2023-07-18T05:05:37.569Z,1.50
2023-07-18T05:08:00.088Z,1.13
2023-07-18T05:10:25.491Z,1.35
2023-07-18T05:12:47.778Z,1.60
2023-07-18T05:15:10.751Z,1.77
2023-07-18T05:17:33.028Z,1.40
2023-07-18T05:19:55.298Z,1.40
2023-07-18T05:22:17.829Z,1.30
2023-07-18T05:24:40.630Z,1.25
2023-07-18T05:27:02.978Z,1.27
2023-07-18T05:29:25.233Z,1.45
2023-07-18T05:31:47.571Z,1.77
2023-07-18T05:34:09.863Z,1.75
2023-07-18T05:36:32.098Z,1.30
2023-07-18T05:38:54.614Z,1.60
2023-07-18T05:41:16.944Z,1.60
2023-07-18T05:43:39.283Z,1.42
2023-07-18T05:46:01.589Z,1.20
2023-07-18T05:48:23.959Z,1.40
2023-07-18T05:50:46.225Z,1.30
2023-07-18T05:53:08.493Z,1.40
2023-07-18T05:55:31.883Z,1.50
2023-07-18T05:57:54.263Z,1.85
2023-07-18T06:00:16.878Z,1.80
2023-07-18T06:02:39.317Z,1.20
2023-07-18T06:05:01.618Z,1.30
2023-07-18T06:07:23.863Z,1.40
2023-07-18T06:09:46.128Z,1.33
2023-07-18T06:12:08.680Z,1.50
2023-07-18T06:14:30.980Z,1.13
2023-07-18T06:16:53.247Z,1.80
2023-07-18T06:19:16.438Z,1.30
2023-07-18T06:21:38.679Z,1.58
2023-07-18T06:24:12.445Z,1.15
2023-07-18T06:26:40.962Z,1.23
2023-07-18T06:29:03.207Z,1.17
2023-07-18T06:31:25.675Z,1.08
2023-07-18T06:33:48.647Z,1.75
2023-07-18T06:36:10.977Z,1.48
2023-07-18T06:38:33.316Z,1.58
2023-07-18T06:40:56.387Z,1.38
2023-07-18T06:43:18.744Z,1.70
2023-07-18T06:45:41.039Z,1.63
2023-07-18T06:48:03.907Z,1.60
2023-07-18T06:50:26.252Z,1.60
2023-07-18T06:52:48.870Z,1.60
2023-07-18T06:55:12.075Z,1.48
2023-07-18T06:57:35.282Z,1.50
2023-07-18T06:59:57.543Z,1.73
2023-07-18T07:02:19.823Z,1.60
2023-07-18T07:04:42.074Z,1.63
2023-07-18T07:07:05.189Z,1.65
2023-07-18T07:09:28.305Z,1.52
2023-07-18T07:11:50.546Z,1.75
2023-07-18T07:14:13.333Z,1.80
2023-07-18T07:16:36.394Z,1.95
2023-07-18T07:18:58.702Z,1.80
2023-07-18T07:21:21.310Z,1.95
2023-07-18T07:23:43.920Z,1.75
2023-07-18T07:26:06.225Z,1.80
2023-07-18T07:28:28.479Z,1.67
2023-07-18T07:30:51.339Z,1.70
2023-07-18T07:33:13.629Z,1.90
2023-07-18T07:35:35.897Z,1.67
2023-07-18T07:37:58.251Z,2.10
2023-07-18T07:40:20.706Z,1.52
2023-07-18T07:42:45.093Z,1.80
2023-07-18T07:45:08.249Z,2.05
2023-07-18T07:47:30.783Z,1.90
2023-07-18T07:49:53.093Z,1.67
2023-07-18T07:52:15.348Z,1.73
2023-07-18T07:54:37.722Z,2.10
2023-07-18T07:57:00.039Z,2.33
2023-07-18T07:59:22.324Z,1.70
2023-07-18T08:01:44.618Z,2.03
2023-07-18T08:04:07.003Z,1.70
2023-07-18T08:06:29.305Z,1.55
2023-07-18T08:08:51.615Z,1.67
2023-07-18T08:11:13.872Z,1.88
2023-07-18T08:13:36.422Z,1.45
2023-07-18T08:15:58.733Z,1.55
2023-07-18T08:18:21.041Z,2.03
2023-07-18T08:20:43.282Z,1.60
2023-07-18T08:23:05.658Z,1.52
2023-07-18T08:25:28.230Z,1.92
2023-07-18T08:27:51.379Z,1.92
2023-07-18T08:30:13.791Z,2.22
2023-07-18T08:32:36.084Z,1.55
2023-07-18T08:34:58.470Z,1.85
2023-07-18T08:37:20.705Z,1.67
2023-07-18T08:39:43.178Z,1.80
2023-07-18T08:42:07.285Z,1.60
2023-07-18T08:44:29.569Z,1.80
2023-07-18T08:46:52.133Z,1.73
2023-07-18T08:49:17.561Z,1.67
2023-07-18T08:51:39.813Z,1.70
2023-07-18T08:54:02.635Z,1.85
2023-07-18T08:56:25.704Z,1.60
2023-07-18T08:58:48.001Z,1.83
2023-07-18T09:01:10.297Z,1.90
2023-07-18T09:03:32.642Z,2.38
2023-07-18T09:05:55.322Z,1.25
2023-07-18T09:08:18.130Z,1.60
2023-07-18T09:10:40.481Z,1.40
2023-07-18T09:13:03.511Z,1.08
2023-07-18T09:15:25.888Z,1.83
2023-07-18T09:17:58.247Z,1.33
2023-07-18T09:20:20.596Z,1.40
2023-07-18T09:22:43.801Z,1.80
2023-07-18T09:25:06.360Z,1.52
2023-07-18T09:27:28.699Z,1.50
2023-07-18T09:29:51.324Z,1.20
2023-07-18T09:32:18.310Z,1.30
2023-07-18T09:34:40.589Z,1.80
2023-07-18T09:37:05.034Z,1.33
2023-07-18T09:39:28.185Z,1.90
2023-07-18T09:41:50.742Z,1.20
2023-07-18T09:44:31.350Z,1.40
2023-07-18T09:46:56.668Z,1.35
2023-07-18T09:49:19.628Z,1.38
2023-07-18T09:51:46.001Z,1.50
2023-07-18T09:54:10.863Z,1.42
2023-07-18T09:56:35.628Z,1.40
2023-07-18T09:58:58.705Z,1.35
2023-07-18T10:01:21.980Z,1.38
2023-07-18T10:03:44.737Z,1.50
2023-07-18T10:06:13.670Z,1.38
2023-07-18T10:08:41.484Z,1.60
2023-07-18T10:11:10.280Z,1.23
2023-07-18T10:13:41.617Z,1.50
2023-07-18T10:16:16.272Z,1.50
2023-07-18T10:18:45.618Z,1.35
2023-07-18T10:21:07.856Z,1.40
2023-07-18T10:23:43.142Z,1.10
2023-07-18T10:26:09.890Z,1.23
2023-07-18T10:28:43.082Z,1.45
2023-07-18T10:31:06.287Z,1.50
2023-07-18T10:33:31.005Z,1.83
2023-07-18T10:35:53.900Z,1.77
2023-07-18T10:38:16.149Z,1.33
2023-07-18T10:40:45.950Z,1.17
2023-07-18T10:43:09.721Z,1.38
2023-07-18T10:45:39.758Z,1.33
2023-07-18T10:48:02.174Z,1.30
2023-07-18T10:50:24.517Z,1.25
2023-07-18T10:52:46.929Z,1.40
2023-07-18T10:55:09.699Z,1.20
2023-07-18T10:57:37.092Z,1.23
2023-07-18T11:00:00.619Z,1.00
2023-07-18T11:02:23.323Z,1.52
2023-07-18T11:04:46.119Z,1.08
2023-07-18T11:07:10.979Z,1.27
2023-07-18T11:09:33.827Z,1.40
2023-07-18T11:11:58.003Z,1.17
2023-07-18T11:14:20.845Z,1.02
2023-07-18T11:16:43.697Z,1.38
2023-07-18T11:19:09.267Z,1.27
2023-07-18T11:21:31.594Z,1.42
2023-07-18T11:23:54.246Z,1.38
2023-07-18T11:26:17.939Z,1.25
2023-07-18T11:28:41.817Z,1.25
2023-07-18T11:31:04.324Z,1.20
2023-07-18T11:33:36.170Z,1.35
2023-07-18T11:36:04.356Z,1.30
2023-07-18T11:38:30.056Z,1.58
2023-07-18T11:40:52.970Z,1.13
2023-07-18T11:43:18.944Z,1.40
2023-07-18T11:45:41.827Z,1.50
2023-07-18T11:48:05.926Z,1.40
2023-07-18T11:50:30.024Z,0.80
2023-07-18T11:52:53.155Z,1.10
2023-07-18T11:55:20.014Z,1.17
2023-07-18T11:57:42.820Z,0.95
2023-07-18T12:00:06.033Z,1.30
2023-07-18T12:02:36.226Z,1.02
2023-07-18T12:04:58.729Z,1.00
2023-07-18T12:07:21.012Z,1.65
2023-07-18T12:09:43.418Z,0.98
2023-07-18T12:12:06.089Z,1.13
2023-07-18T12:14:28.420Z,0.98
2023-07-18T12:16:55.206Z,1.05
2023-07-18T12:19:20.555Z,1.10
2023-07-18T12:21:42.847Z,1.10
2023-07-18T12:24:05.327Z,0.85
2023-07-18T12:26:27.662Z,1.10
2023-07-18T12:28:49.972Z,1.25
2023-07-18T12:31:13.029Z,1.23
2023-07-18T12:33:36.228Z,1.20
2023-07-18T12:35:58.626Z,1.10
2023-07-18T12:38:23.358Z,1.30
2023-07-18T12:40:47.757Z,1.45
2023-07-18T12:43:10.238Z,0.93
2023-07-18T12:45:32.752Z,1.00
2023-07-18T12:47:55.888Z,1.05
2023-07-18T12:50:18.198Z,1.23
2023-07-18T12:52:40.958Z,1.17
2023-07-18T12:55:03.248Z,1.25
2023-07-18T12:57:25.592Z,1.10
2023-07-18T12:59:48.286Z,1.25
2023-07-18T13:02:11.000Z,1.20
2023-07-18T13:04:33.510Z,1.10
2023-07-18T13:06:55.944Z,1.35
2023-07-18T13:09:18.218Z,1.50
2023-07-18T13:11:40.551Z,1.30
2023-07-18T13:14:02.860Z,1.00
2023-07-18T13:16:25.213Z,1.20
2023-07-18T13:18:47.637Z,1.15
2023-07-18T13:21:12.756Z,1.15
2023-07-18T13:23:34.997Z,1.38
2023-07-18T13:26:00.241Z,1.08
2023-07-18T13:28:22.465Z,1.20
2023-07-18T13:30:50.410Z,1.10
2023-07-18T13:33:14.184Z,0.75
2023-07-18T13:35:36.552Z,0.82
2023-07-18T13:37:58.834Z,1.13
2023-07-18T13:40:21.149Z,1.90
2023-07-18T13:42:43.471Z,1.13
2023-07-18T13:45:09.105Z,1.02
2023-07-18T13:47:33.360Z,1.30
2023-07-18T13:49:55.739Z,0.90
2023-07-18T13:52:19.473Z,0.65
2023-07-18T13:54:42.937Z,0.75
2023-07-18T13:57:06.187Z,1.05
2023-07-18T13:59:28.421Z,1.00
2023-07-18T14:01:50.749Z,0.95
2023-07-18T14:04:13.086Z,1.10
2023-07-18T14:06:35.558Z,0.95
2023-07-18T14:08:57.887Z,1.20
2023-07-18T14:11:20.631Z,1.10
2023-07-18T14:13:43.414Z,0.80
2023-07-18T14:16:05.920Z,1.10
2023-07-18T14:18:28.394Z,1.13
2023-07-18T14:20:50.857Z,1.08
2023-07-18T14:23:13.574Z,0.80
2023-07-18T14:25:36.256Z,1.40
2023-07-18T14:27:59.464Z,1.17
2023-07-18T14:30:22.251Z,1.00
2023-07-18T14:32:44.617Z,1.30
2023-07-18T14:35:08.202Z,1.38
2023-07-18T14:37:30.466Z,1.42
2023-07-18T14:39:59.753Z,1.05
2023-07-18T14:42:22.040Z,1.00
2023-07-18T14:44:45.804Z,1.23
2023-07-18T14:47:09.364Z,0.98
2023-07-18T14:49:31.929Z,1.27
2023-07-18T14:51:54.238Z,1.38
2023-07-18T14:54:18.093Z,1.15
2023-07-18T14:56:40.345Z,1.00
2023-07-18T14:59:02.638Z,1.23
2023-07-18T15:01:24.987Z,1.27
2023-07-18T15:03:48.917Z,1.33
2023-07-18T15:06:11.212Z,1.17
2023-07-18T15:08:35.199Z,1.20
2023-07-18T15:10:57.510Z,1.17
2023-07-18T15:13:19.764Z,0.90
2023-07-18T15:15:42.852Z,1.13
2023-07-18T15:18:05.161Z,1.17
2023-07-18T15:20:27.531Z,1.10
2023-07-18T15:22:52.715Z,1.30
2023-07-18T15:25:15.330Z,1.20
2023-07-18T15:27:38.098Z,1.10
2023-07-18T15:30:00.485Z,0.80
2023-07-18T15:32:22.898Z,0.85
2023-07-18T15:34:45.294Z,1.33
2023-07-18T15:37:07.553Z,1.02
2023-07-18T15:39:29.893Z,1.27
2023-07-18T15:41:52.281Z,1.20
2023-07-18T15:44:14.573Z,1.00
2023-07-18T15:46:39.775Z,1.00
2023-07-18T15:49:02.142Z,1.33
2023-07-18T15:51:24.435Z,1.23
2023-07-18T15:53:46.710Z,1.30
2023-07-18T15:56:10.422Z,1.35
2023-07-18T15:58:32.779Z,1.17
2023-07-18T16:00:57.534Z,1.05
2023-07-18T16:03:20.161Z,1.13
2023-07-18T16:05:42.544Z,1.40
2023-07-18T16:08:04.902Z,1.42
2023-07-18T16:10:27.599Z,1.10
2023-07-18T16:12:49.917Z,1.48
2023-07-18T16:15:12.564Z,1.25
2023-07-18T16:17:34.824Z,1.23
2023-07-18T16:19:57.590Z,0.95
2023-07-18T16:22:20.408Z,1.13
2023-07-18T16:24:47.178Z,0.90
2023-07-18T16:27:09.603Z,0.98
2023-07-18T16:29:31.893Z,1.23
2023-07-18T16:31:54.188Z,1.42
2023-07-18T16:34:16.493Z,1.00
2023-07-18T16:36:41.059Z,1.23
2023-07-18T16:39:03.435Z,1.00
2023-07-18T16:41:25.807Z,1.15
2023-07-18T16:43:48.165Z,1.02
2023-07-18T16:46:10.448Z,1.02
2023-07-18T16:48:33.749Z,1.27
2023-07-18T16:50:56.321Z,1.27
2023-07-18T16:53:21.449Z,1.05
2023-07-18T16:55:43.821Z,1.33
2023-07-18T16:58:06.149Z,1.25
2023-07-18T17:00:28.979Z,1.23
2023-07-18T17:02:51.313Z,1.27
2023-07-18T17:05:13.607Z,0.82
2023-07-18T17:07:36.502Z,1.00
2023-07-18T17:10:00.476Z,1.02
2023-07-18T17:12:22.990Z,0.80
2023-07-18T17:14:45.240Z,1.02
2023-07-18T17:17:07.988Z,1.23
2023-07-18T17:19:30.323Z,1.30
2023-07-18T17:21:52.580Z,1.38
2023-07-18T17:24:14.875Z,0.93
2023-07-18T17:26:37.523Z,1.23
2023-07-18T17:28:59.952Z,1.23
2023-07-18T17:31:22.278Z,1.13
2023-07-18T17:33:44.912Z,1.08
2023-07-18T17:36:08.357Z,1.23
2023-07-18T17:38:32.081Z,1.30
2023-07-18T17:40:54.348Z,1.33
2023-07-18T17:43:16.633Z,1.27
2023-07-18T17:45:38.974Z,1.10
2023-07-18T17:48:01.330Z,1.30
2023-07-18T17:50:23.620Z,1.20
2023-07-18T17:52:46.087Z,1.08
2023-07-18T17:55:10.666Z,1.42
2023-07-18T17:57:32.972Z,1.23
2023-07-18T17:59:55.376Z,1.10
2023-07-18T18:02:18.024Z,1.50
2023-07-18T18:04:40.352Z,1.00
2023-07-18T18:07:02.609Z,1.10
2023-07-18T18:09:24.835Z,1.20
2023-07-18T18:11:47.394Z,1.40
2023-07-18T18:14:09.677Z,1.05
2023-07-18T18:16:31.975Z,1.13
2023-07-18T18:18:54.225Z,1.15
2023-07-18T18:21:16.642Z,1.13
2023-07-18T18:23:40.867Z,1.10
2023-07-18T18:26:04.074Z,1.15
2023-07-18T18:28:26.399Z,1.05
2023-07-18T18:30:52.625Z,1.05
2023-07-18T18:33:15.038Z,1.10
2023-07-18T18:35:38.089Z,1.10
2023-07-18T18:38:00.377Z,1.40
2023-07-18T18:40:22.931Z,1.60
2023-07-18T18:42:45.849Z,1.02
2023-07-18T18:45:08.334Z,1.23
2023-07-18T18:47:32.021Z,1.10
2023-07-18T18:49:54.335Z,1.00
2023-07-18T18:52:16.718Z,1.27
2023-07-18T18:54:39.078Z,1.52
2023-07-18T18:57:01.394Z,1.15
2023-07-18T18:59:24.651Z,1.35
2023-07-18T19:01:47.347Z,1.42
2023-07-18T19:04:09.705Z,1.48
2023-07-18T19:06:32.042Z,1.10
2023-07-18T19:08:55.514Z,1.13
2023-07-18T19:11:18.007Z,1.20
2023-07-18T19:13:41.011Z,1.05
2023-07-18T19:16:03.482Z,1.05
2023-07-18T19:18:25.862Z,1.20
2023-07-18T19:20:48.617Z,1.65
2023-07-18T19:23:11.084Z,1.17
2023-07-18T19:25:33.717Z,1.13
2023-07-18T19:27:56.197Z,1.52
2023-07-18T19:30:18.502Z,1.38
2023-07-18T19:32:40.948Z,1.40
2023-07-18T19:35:04.188Z,1.20
2023-07-18T19:37:26.687Z,1.30
2023-07-18T19:39:48.973Z,1.27
2023-07-18T19:42:11.341Z,1.48
2023-07-18T19:44:35.197Z,1.40
2023-07-18T19:46:58.691Z,1.17
2023-07-18T19:49:21.069Z,1.20
2023-07-18T19:51:43.535Z,1.27
2023-07-18T19:54:06.215Z,1.85
2023-07-18T19:56:28.488Z,1.52
2023-07-18T19:58:53.640Z,1.35
2023-07-18T20:01:16.615Z,1.25
2023-07-18T20:03:56.659Z,1.38
2023-07-18T20:06:21.411Z,1.40
2023-07-18T20:08:43.645Z,1.13
2023-07-18T20:11:06.059Z,1.50
2023-07-18T20:13:28.324Z,1.35
2023-07-18T20:15:50.634Z,1.27
2023-07-18T20:18:12.893Z,1.40
2023-07-18T20:20:35.403Z,1.45
2023-07-18T20:22:57.684Z,1.45
2023-07-18T20:25:19.992Z,1.52
2023-07-18T20:27:42.324Z,1.50
2023-07-18T20:30:05.434Z,1.67
2023-07-18T20:32:27.758Z,1.40
2023-07-18T20:34:50.126Z,1.30
2023-07-18T20:37:12.437Z,1.77
2023-07-18T20:39:34.783Z,1.75
2023-07-18T20:41:57.014Z,1.80
2023-07-18T20:44:19.269Z,1.77
2023-07-18T20:46:41.521Z,1.38
2023-07-18T20:49:04.027Z,1.40
2023-07-18T20:51:26.362Z,1.50
2023-07-18T20:53:48.744Z,1.52
2023-07-18T20:56:11.140Z,1.88
2023-07-18T20:58:33.774Z,1.38
2023-07-18T21:00:56.259Z,1.65
2023-07-18T21:03:18.601Z,1.52
2023-07-18T21:05:40.939Z,1.73
2023-07-18T21:08:03.357Z,1.35
2023-07-18T21:10:25.622Z,1.25
2023-07-18T21:12:48.342Z,1.90
2023-07-18T21:15:11.169Z,1.65
2023-07-18T21:17:33.471Z,1.40
2023-07-18T21:19:55.969Z,1.40
2023-07-18T21:22:18.220Z,1.35
2023-07-18T21:24:43.500Z,1.55
2023-07-18T21:27:06.261Z,1.50
2023-07-18T21:29:28.603Z,1.30
2023-07-18T21:31:52.602Z,1.60
2023-07-18T21:34:16.184Z,1.83
2023-07-18T21:36:38.790Z,1.20
2023-07-18T21:39:01.046Z,1.55
2023-07-18T21:41:23.565Z,1.30
2023-07-18T21:43:45.911Z,1.52
2023-07-18T21:46:08.262Z,1.75
2023-07-18T21:48:30.643Z,1.92
2023-07-18T21:50:52.888Z,1.63
2023-07-18T21:53:15.336Z,1.33
2023-07-18T21:55:37.681Z,1.67
2023-07-18T21:57:59.995Z,1.75
2023-07-18T22:00:22.233Z,1.20
2023-07-18T22:02:44.973Z,1.60
2023-07-18T22:05:07.731Z,1.70
2023-07-18T22:07:34.494Z,1.70
2023-07-18T22:09:57.236Z,1.95
2023-07-18T22:12:19.503Z,2.08
2023-07-18T22:14:41.772Z,2.10
2023-07-18T22:17:04.126Z,1.67
2023-07-18T22:19:26.602Z,1.45
2023-07-18T22:21:49.133Z,1.75
2023-07-18T22:24:12.069Z,1.55
2023-07-18T22:26:35.790Z,1.40
2023-07-18T22:28:58.030Z,1.65
2023-07-18T22:31:20.536Z,1.63
2023-07-18T22:33:44.877Z,1.92
2023-07-18T22:36:07.252Z,1.60
2023-07-18T22:38:29.525Z,1.35
2023-07-18T22:40:51.764Z,1.52
2023-07-18T22:43:14.757Z,1.63
2023-07-18T22:45:37.012Z,1.60
2023-07-18T22:47:59.368Z,1.48
2023-07-18T22:50:21.601Z,1.58
2023-07-18T22:52:43.823Z,1.70
2023-07-18T22:55:06.399Z,1.67
2023-07-18T22:57:28.858Z,1.45
2023-07-18T22:59:52.839Z,1.77
2023-07-18T23:02:16.592Z,1.77
2023-07-18T23:04:39.904Z,1.92
2023-07-18T23:07:02.742Z,1.70
2023-07-18T23:09:25.217Z,1.60
2023-07-18T23:11:48.020Z,1.80
2023-07-18T23:14:10.485Z,1.58
2023-07-18T23:16:32.776Z,1.80
2023-07-18T23:18:55.242Z,2.08
2023-07-18T23:21:18.388Z,1.70
2023-07-18T23:23:40.711Z,1.50
2023-07-18T23:26:02.921Z,1.52
2023-07-18T23:28:25.445Z,2.03
2023-07-18T23:30:47.815Z,1.80
2023-07-18T23:33:10.197Z,1.42
2023-07-18T23:35:32.453Z,1.85
2023-07-18T23:37:57.044Z,1.60
2023-07-18T23:40:19.307Z,1.52
2023-07-18T23:42:41.578Z,1.73
2023-07-18T23:45:03.949Z,1.85
2023-07-18T23:47:26.292Z,1.55
2023-07-18T23:49:48.566Z,1.70
2023-07-18T23:52:10.970Z,1.80
2023-07-18T23:54:33.226Z,1.83
2023-07-18T23:56:55.454Z,1.70
2023-07-18T23:59:17.752Z,1.73
